sensor_id;sensor_type;location;lat;lon;timestamp;pressure;altitude;pressure_sealevel;temperature;humidity
75157;BME280;63736;50.076;8.198;2023-08-21T00:01:14;100030.91;;;23.55;100.00
75157;BME280;63736;50.076;8.198;2023-08-21T00:03:40;100035.06;;;23.51;100.00
75157;BME280;63736;50.076;8.198;2023-08-21T00:06:05;100032.75;;;23.48;100.00
75157;BME280;63736;50.076;8.198;2023-08-21T00:08:30;100027.50;;;23.47;100.00
75157;BME280;63736;50.076;8.198;2023-08-21T00:10:55;100028.09;;;23.42;100.00
75157;BME280;63736;50.076;8.198;2023-08-21T00:13:21;100028.94;;;23.36;100.00
75157;BME280;63736;50.076;8.198;2023-08-21T00:15:46;100028.03;;;23.29;100.00
75157;BME280;63736;50.076;8.198;2023-08-21T00:18:11;100022.13;;;23.25;100.00
75157;BME280;63736;50.076;8.198;2023-08-21T00:20:36;100030.06;;;23.20;100.00
75157;BME280;63736;50.076;8.198;2023-08-21T00:23:01;100029.81;;;23.15;100.00
75157;BME280;63736;50.076;8.198;2023-08-21T00:25:27;100030.41;;;23.10;100.00
75157;BME280;63736;50.076;8.198;2023-08-21T00:27:52;100034.56;;;23.06;100.00
75157;BME280;63736;50.076;8.198;2023-08-21T00:30:17;100031.38;;;23.02;100.00
75157;BME280;63736;50.076;8.198;2023-08-21T00:32:43;100033.88;;;22.97;100.00
75157;BME280;63736;50.076;8.198;2023-08-21T00:35:08;100028.78;;;22.94;100.00
75157;BME280;63736;50.076;8.198;2023-08-21T00:37:33;100033.16;;;22.88;100.00
75157;BME280;63736;50.076;8.198;2023-08-21T00:39:58;100024.72;;;22.83;100.00
75157;BME280;63736;50.076;8.198;2023-08-21T00:42:23;100021.75;;;22.78;100.00
75157;BME280;63736;50.076;8.198;2023-08-21T00:44:48;100020.88;;;22.71;100.00
75157;BME280;63736;50.076;8.198;2023-08-21T00:47:14;100021.66;;;22.65;100.00
75157;BME280;63736;50.076;8.198;2023-08-21T00:49:39;100023.91;;;22.61;100.00
75157;BME280;63736;50.076;8.198;2023-08-21T00:52:06;100019.06;;;22.56;100.00
75157;BME280;63736;50.076;8.198;2023-08-21T00:54:33;100023.19;;;22.52;100.00
75157;BME280;63736;50.076;8.198;2023-08-21T00:56:58;100024.44;;;22.50;100.00
75157;BME280;63736;50.076;8.198;2023-08-21T00:59:23;100022.94;;;22.47;100.00
75157;BME280;63736;50.076;8.198;2023-08-21T01:01:48;100024.84;;;22.47;100.00
75157;BME280;63736;50.076;8.198;2023-08-21T01:04:13;100019.00;;;22.50;100.00
75157;BME280;63736;50.076;8.198;2023-08-21T01:06:39;100025.94;;;22.52;100.00
75157;BME280;63736;50.076;8.198;2023-08-21T01:16:47;100027.94;;;22.65;100.00
75157;BME280;63736;50.076;8.198;2023-08-21T01:19:26;100026.44;;;22.63;100.00
75157;BME280;63736;50.076;8.198;2023-08-21T01:21:55;100033.97;;;22.60;100.00
75157;BME280;63736;50.076;8.198;2023-08-21T01:24:20;100034.16;;;22.59;100.00
75157;BME280;63736;50.076;8.198;2023-08-21T01:26:45;100038.13;;;22.56;100.00
75157;BME280;63736;50.076;8.198;2023-08-21T01:29:10;100043.75;;;22.55;100.00
75157;BME280;63736;50.076;8.198;2023-08-21T01:31:36;100044.81;;;22.54;100.00
75157;BME280;63736;50.076;8.198;2023-08-21T01:34:04;100046.03;;;22.51;100.00
75157;BME280;63736;50.076;8.198;2023-08-21T01:36:31;100048.09;;;22.49;100.00
75157;BME280;63736;50.076;8.198;2023-08-21T01:38:56;100048.50;;;22.46;100.00
75157;BME280;63736;50.076;8.198;2023-08-21T01:41:25;100046.16;;;22.43;100.00
75157;BME280;63736;50.076;8.198;2023-08-21T01:43:50;100048.41;;;22.39;100.00
75157;BME280;63736;50.076;8.198;2023-08-21T01:46:15;100057.16;;;22.35;100.00
75157;BME280;63736;50.076;8.198;2023-08-21T01:48:41;100057.72;;;22.30;100.00
75157;BME280;63736;50.076;8.198;2023-08-21T01:51:06;100054.56;;;22.26;100.00
75157;BME280;63736;50.076;8.198;2023-08-21T01:53:31;100053.22;;;22.22;100.00
75157;BME280;63736;50.076;8.198;2023-08-21T01:55:56;100053.63;;;22.19;100.00
75157;BME280;63736;50.076;8.198;2023-08-21T01:58:21;100049.41;;;22.17;100.00
75157;BME280;63736;50.076;8.198;2023-08-21T02:00:47;100048.75;;;22.15;100.00
75157;BME280;63736;50.076;8.198;2023-08-21T02:03:12;100049.59;;;22.15;100.00
75157;BME280;63736;50.076;8.198;2023-08-21T02:05:38;100046.03;;;22.15;100.00
75157;BME280;63736;50.076;8.198;2023-08-21T02:08:04;100043.13;;;22.16;100.00
75157;BME280;63736;50.076;8.198;2023-08-21T02:10:29;100047.50;;;22.17;100.00
75157;BME280;63736;50.076;8.198;2023-08-21T02:12:54;100036.47;;;22.19;100.00
75157;BME280;63736;50.076;8.198;2023-08-21T02:15:19;100043.47;;;22.28;100.00
75157;BME280;63736;50.076;8.198;2023-08-21T02:17:46;100036.41;;;22.34;100.00
75157;BME280;63736;50.076;8.198;2023-08-21T02:20:12;100045.41;;;22.34;100.00
75157;BME280;63736;50.076;8.198;2023-08-21T02:22:37;100043.06;;;22.31;100.00
75157;BME280;63736;50.076;8.198;2023-08-21T02:25:02;100038.84;;;22.28;100.00
75157;BME280;63736;50.076;8.198;2023-08-21T02:27:27;100045.53;;;22.26;100.00
75157;BME280;63736;50.076;8.198;2023-08-21T02:29:53;100044.50;;;22.27;100.00
75157;BME280;63736;50.076;8.198;2023-08-21T02:32:18;100046.19;;;22.28;100.00
75157;BME280;63736;50.076;8.198;2023-08-21T02:34:43;100046.81;;;22.30;100.00
75157;BME280;63736;50.076;8.198;2023-08-21T02:37:08;100047.69;;;22.31;100.00
75157;BME280;63736;50.076;8.198;2023-08-21T02:39:34;100043.06;;;22.31;100.00
75157;BME280;63736;50.076;8.198;2023-08-21T02:41:59;100048.81;;;22.36;100.00
75157;BME280;63736;50.076;8.198;2023-08-21T02:44:24;100050.50;;;22.37;100.00
75157;BME280;63736;50.076;8.198;2023-08-21T02:46:49;100047.28;;;22.34;100.00
75157;BME280;63736;50.076;8.198;2023-08-21T02:49:14;100042.44;;;22.29;100.00
75157;BME280;63736;50.076;8.198;2023-08-21T02:51:39;100041.72;;;22.20;100.00
75157;BME280;63736;50.076;8.198;2023-08-21T02:54:04;100047.25;;;22.12;100.00
75157;BME280;63736;50.076;8.198;2023-08-21T02:56:30;100046.63;;;22.10;100.00
75157;BME280;63736;50.076;8.198;2023-08-21T02:58:55;100045.13;;;22.07;100.00
75157;BME280;63736;50.076;8.198;2023-08-21T03:01:20;100049.44;;;22.02;100.00
75157;BME280;63736;50.076;8.198;2023-08-21T03:03:46;100045.41;;;21.98;100.00
75157;BME280;63736;50.076;8.198;2023-08-21T03:06:11;100046.63;;;21.95;100.00
75157;BME280;63736;50.076;8.198;2023-08-21T03:08:36;100045.13;;;21.92;100.00
75157;BME280;63736;50.076;8.198;2023-08-21T03:11:01;100049.28;;;21.88;100.00
75157;BME280;63736;50.076;8.198;2023-08-21T03:13:26;100044.44;;;21.84;100.00
75157;BME280;63736;50.076;8.198;2023-08-21T03:15:52;100041.22;;;21.80;100.00
75157;BME280;63736;50.076;8.198;2023-08-21T03:18:18;100045.19;;;21.77;100.00
75157;BME280;63736;50.076;8.198;2023-08-21T03:20:46;100041.31;;;21.72;100.00
75157;BME280;63736;50.076;8.198;2023-08-21T03:23:12;100048.16;;;21.68;100.00
75157;BME280;63736;50.076;8.198;2023-08-21T03:25:37;100044.16;;;21.64;100.00
75157;BME280;63736;50.076;8.198;2023-08-21T03:28:02;100054.75;;;21.58;100.00
75157;BME280;63736;50.076;8.198;2023-08-21T03:30:27;100053.44;;;21.54;100.00
75157;BME280;63736;50.076;8.198;2023-08-21T03:32:53;100048.34;;;21.51;100.00
75157;BME280;63736;50.076;8.198;2023-08-21T03:35:18;100045.53;;;21.44;100.00
75157;BME280;63736;50.076;8.198;2023-08-21T03:37:43;100049.84;;;21.39;100.00
75157;BME280;63736;50.076;8.198;2023-08-21T03:40:08;100056.31;;;21.38;100.00
75157;BME280;63736;50.076;8.198;2023-08-21T03:42:34;100050.88;;;21.38;100.00
75157;BME280;63736;50.076;8.198;2023-08-21T03:44:59;100042.06;;;21.36;100.00
75157;BME280;63736;50.076;8.198;2023-08-21T03:47:24;100049.06;;;21.30;100.00
75157;BME280;63736;50.076;8.198;2023-08-21T03:49:49;100048.16;;;21.23;100.00
75157;BME280;63736;50.076;8.198;2023-08-21T03:52:14;100043.66;;;21.15;100.00
75157;BME280;63736;50.076;8.198;2023-08-21T03:54:40;100054.59;;;21.07;100.00
75157;BME280;63736;50.076;8.198;2023-08-21T03:57:05;100050.09;;;20.99;100.00
75157;BME280;63736;50.076;8.198;2023-08-21T03:59:30;100055.38;;;20.92;100.00
75157;BME280;63736;50.076;8.198;2023-08-21T04:01:55;100052.56;;;20.86;100.00
75157;BME280;63736;50.076;8.198;2023-08-21T04:04:20;100064.00;;;20.81;100.00
75157;BME280;63736;50.076;8.198;2023-08-21T04:06:46;100065.19;;;20.78;100.00
75157;BME280;63736;50.076;8.198;2023-08-21T04:09:11;100066.41;;;20.76;100.00
75157;BME280;63736;50.076;8.198;2023-08-21T04:11:36;100067.44;;;20.75;100.00
75157;BME280;63736;50.076;8.198;2023-08-21T04:14:01;100069.13;;;20.76;100.00
75157;BME280;63736;50.076;8.198;2023-08-21T04:16:27;100065.53;;;20.75;100.00
75157;BME280;63736;50.076;8.198;2023-08-21T04:18:53;100069.13;;;20.76;100.00
75157;BME280;63736;50.076;8.198;2023-08-21T04:21:18;100066.41;;;20.76;100.00
75157;BME280;63736;50.076;8.198;2023-08-21T04:23:44;100062.84;;;20.75;100.00
75157;BME280;63736;50.076;8.198;2023-08-21T04:26:09;100059.47;;;20.73;100.00
75157;BME280;63736;50.076;8.198;2023-08-21T04:28:35;100060.69;;;20.71;100.00
75157;BME280;63736;50.076;8.198;2023-08-21T04:31:00;100068.31;;;20.67;100.00
75157;BME280;63736;50.076;8.198;2023-08-21T04:33:28;100069.31;;;20.66;100.00
75157;BME280;63736;50.076;8.198;2023-08-21T04:35:54;100064.75;;;20.67;100.00
75157;BME280;63736;50.076;8.198;2023-08-21T04:38:19;100067.47;;;20.67;100.00
75157;BME280;63736;50.076;8.198;2023-08-21T04:40:44;100065.41;;;20.69;100.00
75157;BME280;63736;50.076;8.198;2023-08-21T04:43:09;100064.22;;;20.71;100.00
75157;BME280;63736;50.076;8.198;2023-08-21T04:45:35;100066.41;;;20.76;100.00
75157;BME280;63736;50.076;8.198;2023-08-21T04:48:02;100074.00;;;20.80;100.00
75157;BME280;63736;50.076;8.198;2023-08-21T04:50:27;100071.13;;;20.82;100.00
75157;BME280;63736;50.076;8.198;2023-08-21T04:52:53;100069.72;;;20.86;100.00
75157;BME280;63736;50.076;8.198;2023-08-21T04:55:18;100067.31;;;20.91;100.00
75157;BME280;63736;50.076;8.198;2023-08-21T04:57:44;100080.97;;;20.98;100.00
75157;BME280;63736;50.076;8.198;2023-08-21T05:00:09;100075.66;;;21.05;100.00
75157;BME280;63736;50.076;8.198;2023-08-21T05:02:34;100076.63;;;21.12;100.00
75157;BME280;63736;50.076;8.198;2023-08-21T05:04:59;100078.22;;;21.21;100.00
75157;BME280;63736;50.076;8.198;2023-08-21T05:07:25;100078.97;;;21.30;100.00
75157;BME280;63736;50.076;8.198;2023-08-21T05:09:51;100077.03;;;21.39;100.00
75157;BME280;63736;50.076;8.198;2023-08-21T05:12:17;100081.81;;;21.52;100.00
75157;BME280;63736;50.076;8.198;2023-08-21T05:14:42;100081.00;;;21.66;100.00
75157;BME280;63736;50.076;8.198;2023-08-21T05:17:07;100082.88;;;22.17;100.00
75157;BME280;63736;50.076;8.198;2023-08-21T05:19:33;100083.66;;;23.13;100.00
75157;BME280;63736;50.076;8.198;2023-08-21T05:21:58;100078.25;;;24.24;100.00
75157;BME280;63736;50.076;8.198;2023-08-21T05:24:23;100085.72;;;25.45;100.00
75157;BME280;63736;50.076;8.198;2023-08-21T05:26:48;100095.22;;;26.53;100.00
75157;BME280;63736;50.076;8.198;2023-08-21T05:29:13;100090.94;;;27.46;100.00
75157;BME280;63736;50.076;8.198;2023-08-21T05:31:38;100096.94;;;27.99;95.65
75157;BME280;63736;50.076;8.198;2023-08-21T05:34:04;100097.91;;;28.54;89.70
75157;BME280;63736;50.076;8.198;2023-08-21T05:36:29;100112.34;;;28.49;85.97
75157;BME280;63736;50.076;8.198;2023-08-21T05:38:56;100102.84;;;28.33;85.73
75157;BME280;63736;50.076;8.198;2023-08-21T05:41:21;100102.84;;;28.94;82.90
75157;BME280;63736;50.076;8.198;2023-08-21T05:43:46;100103.47;;;29.79;77.14
75157;BME280;63736;50.076;8.198;2023-08-21T05:46:12;100106.06;;;30.50;72.69
75157;BME280;63736;50.076;8.198;2023-08-21T05:48:37;100112.63;;;30.95;67.73
75157;BME280;63736;50.076;8.198;2023-08-21T05:51:03;100110.78;;;31.69;64.44
75157;BME280;63736;50.076;8.198;2023-08-21T05:53:28;100112.59;;;32.47;59.05
75157;BME280;63736;50.076;8.198;2023-08-21T05:55:53;100109.13;;;33.21;55.35
75157;BME280;63736;50.076;8.198;2023-08-21T05:58:19;100106.56;;;33.95;52.48
75157;BME280;63736;50.076;8.198;2023-08-21T06:00:44;100110.66;;;34.61;49.53
75157;BME280;63736;50.076;8.198;2023-08-21T06:03:09;100106.81;;;35.24;47.31
75157;BME280;63736;50.076;8.198;2023-08-21T06:05:34;100110.03;;;35.78;45.44
75157;BME280;63736;50.076;8.198;2023-08-21T06:07:59;100107.63;;;36.31;43.97
75157;BME280;63736;50.076;8.198;2023-08-21T06:10:25;100108.38;;;36.87;41.50
75157;BME280;63736;50.076;8.198;2023-08-21T06:12:50;100113.19;;;37.45;40.83
75157;BME280;63736;50.076;8.198;2023-08-21T06:15:16;100112.28;;;38.23;39.07
75157;BME280;63736;50.076;8.198;2023-08-21T06:17:41;100102.63;;;38.91;38.26
75157;BME280;63736;50.076;8.198;2023-08-21T06:20:07;100120.59;;;39.37;36.29
75157;BME280;63736;50.076;8.198;2023-08-21T06:22:35;100115.75;;;39.71;35.81
75157;BME280;63736;50.076;8.198;2023-08-21T06:25:01;100119.69;;;39.97;35.38
75157;BME280;63736;50.076;8.198;2023-08-21T06:27:26;100117.41;;;40.50;33.58
75157;BME280;63736;50.076;8.198;2023-08-21T06:29:51;100114.56;;;40.78;33.27
75157;BME280;63736;50.076;8.198;2023-08-21T06:32:16;100119.09;;;41.10;31.82
75157;BME280;63736;50.076;8.198;2023-08-21T06:34:42;100116.38;;;41.28;32.58
75157;BME280;63736;50.076;8.198;2023-08-21T06:37:07;100118.22;;;41.33;31.21
75157;BME280;63736;50.076;8.198;2023-08-21T06:39:33;100116.50;;;41.86;31.80
75157;BME280;63736;50.076;8.198;2023-08-21T06:41:58;100127.16;;;42.24;28.75
75157;BME280;63736;50.076;8.198;2023-08-21T06:44:25;100125.06;;;42.56;29.34
75157;BME280;63736;50.076;8.198;2023-08-21T06:46:50;100123.06;;;42.83;28.54
75157;BME280;63736;50.076;8.198;2023-08-21T06:49:15;100122.56;;;42.89;28.32
75157;BME280;63736;50.076;8.198;2023-08-21T06:51:40;100123.09;;;42.74;28.76
75157;BME280;63736;50.076;8.198;2023-08-21T06:54:05;100119.44;;;42.82;28.33
75157;BME280;63736;50.076;8.198;2023-08-21T06:56:31;100119.56;;;43.03;27.86
75157;BME280;63736;50.076;8.198;2023-08-21T06:58:56;100124.53;;;43.15;27.93
75157;BME280;63736;50.076;8.198;2023-08-21T07:01:21;100127.38;;;43.63;27.66
75157;BME280;63736;50.076;8.198;2023-08-21T07:03:47;100125.84;;;44.04;26.66
75157;BME280;63736;50.076;8.198;2023-08-21T07:06:12;100120.97;;;44.43;25.91
75157;BME280;63736;50.076;8.198;2023-08-21T07:08:37;100123.44;;;44.45;26.17
75157;BME280;63736;50.076;8.198;2023-08-21T07:11:05;100121.94;;;44.47;26.58
75157;BME280;63736;50.076;8.198;2023-08-21T07:13:30;100126.31;;;44.57;25.09
75157;BME280;63736;50.076;8.198;2023-08-21T07:15:55;100126.38;;;44.69;24.45
75157;BME280;63736;50.076;8.198;2023-08-21T07:18:20;100122.53;;;44.53;24.19
75157;BME280;63736;50.076;8.198;2023-08-21T07:20:46;100126.88;;;44.50;25.40
75157;BME280;63736;50.076;8.198;2023-08-21T07:23:11;100114.38;;;44.60;24.88
75157;BME280;63736;50.076;8.198;2023-08-21T07:25:36;100127.19;;;44.91;25.08
75157;BME280;63736;50.076;8.198;2023-08-21T07:28:02;100120.28;;;45.47;24.04
75157;BME280;63736;50.076;8.198;2023-08-21T07:30:27;100124.88;;;45.89;23.86
75157;BME280;63736;50.076;8.198;2023-08-21T07:32:52;100120.53;;;46.28;23.52
75157;BME280;63736;50.076;8.198;2023-08-21T07:35:17;100116.81;;;46.81;22.98
75157;BME280;63736;50.076;8.198;2023-08-21T07:37:43;100121.31;;;47.10;22.31
75157;BME280;63736;50.076;8.198;2023-08-21T07:40:08;100121.06;;;47.03;22.16
75157;BME280;63736;50.076;8.198;2023-08-21T07:42:33;100121.44;;;47.02;22.38
75157;BME280;63736;50.076;8.198;2023-08-21T07:44:58;100114.69;;;46.90;22.18
75157;BME280;63736;50.076;8.198;2023-08-21T07:47:24;100118.22;;;47.03;22.41
75157;BME280;63736;50.076;8.198;2023-08-21T07:49:51;100119.75;;;47.29;22.07
75157;BME280;63736;50.076;8.198;2023-08-21T07:52:16;100111.16;;;47.25;21.97
75157;BME280;63736;50.076;8.198;2023-08-21T07:54:41;100114.94;;;47.29;22.21
75157;BME280;63736;50.076;8.198;2023-08-21T07:57:06;100110.41;;;47.57;21.88
75157;BME280;63736;50.076;8.198;2023-08-21T07:59:32;100119.41;;;47.62;21.75
75157;BME280;63736;50.076;8.198;2023-08-21T08:01:57;100119.59;;;47.70;21.27
75157;BME280;63736;50.076;8.198;2023-08-21T08:04:22;100115.88;;;47.81;21.81
75157;BME280;63736;50.076;8.198;2023-08-21T08:06:47;100118.28;;;47.99;21.10
75157;BME280;63736;50.076;8.198;2023-08-21T08:09:13;100124.72;;;48.16;20.57
75157;BME280;63736;50.076;8.198;2023-08-21T08:11:38;100128.56;;;48.23;20.60
75157;BME280;63736;50.076;8.198;2023-08-21T08:14:03;100129.13;;;48.13;20.67
75157;BME280;63736;50.076;8.198;2023-08-21T08:16:28;100134.91;;;48.36;21.06
75157;BME280;63736;50.076;8.198;2023-08-21T08:18:53;100126.94;;;48.42;20.49
75157;BME280;63736;50.076;8.198;2023-08-21T08:21:19;100127.31;;;48.40;20.41
75157;BME280;63736;50.076;8.198;2023-08-21T08:23:44;100121.06;;;48.31;20.68
75157;BME280;63736;50.076;8.198;2023-08-21T08:26:09;100130.06;;;48.37;20.76
75157;BME280;63736;50.076;8.198;2023-08-21T08:28:34;100130.75;;;48.50;20.51
75157;BME280;63736;50.076;8.198;2023-08-21T08:31:00;100130.97;;;48.60;19.82
75157;BME280;63736;50.076;8.198;2023-08-21T08:33:25;100129.56;;;48.31;20.51
75157;BME280;63736;50.076;8.198;2023-08-21T08:35:50;100128.38;;;48.32;20.27
75157;BME280;63736;50.076;8.198;2023-08-21T08:38:16;100115.47;;;48.35;19.82
75157;BME280;63736;50.076;8.198;2023-08-21T08:40:45;100127.91;;;48.30;20.07
75157;BME280;63736;50.076;8.198;2023-08-21T08:43:13;100125.34;;;48.25;20.48
75157;BME280;63736;50.076;8.198;2023-08-21T08:45:39;100119.53;;;48.18;20.19
75157;BME280;63736;50.076;8.198;2023-08-21T08:48:05;100112.66;;;48.19;20.11
75157;BME280;63736;50.076;8.198;2023-08-21T08:50:31;100111.22;;;48.09;20.22
75157;BME280;63736;50.076;8.198;2023-08-21T08:52:57;100113.59;;;48.07;19.86
75157;BME280;63736;50.076;8.198;2023-08-21T08:55:23;100116.28;;;48.00;20.11
75157;BME280;63736;50.076;8.198;2023-08-21T08:57:48;100111.22;;;48.09;20.35
75157;BME280;63736;50.076;8.198;2023-08-21T09:00:14;100106.78;;;47.76;20.38
75157;BME280;63736;50.076;8.198;2023-08-21T09:02:39;100102.56;;;47.50;20.62
75157;BME280;63736;50.076;8.198;2023-08-21T09:05:04;100100.00;;;47.45;20.53
75157;BME280;63736;50.076;8.198;2023-08-21T09:07:29;100100.00;;;47.45;20.52
75157;BME280;63736;50.076;8.198;2023-08-21T09:09:55;100100.53;;;47.35;20.81
75157;BME280;63736;50.076;8.198;2023-08-21T09:12:20;100105.19;;;47.43;20.56
75157;BME280;63736;50.076;8.198;2023-08-21T09:14:46;100110.84;;;47.43;20.39
75157;BME280;63736;50.076;8.198;2023-08-21T09:17:11;100105.06;;;47.55;20.52
75157;BME280;63736;50.076;8.198;2023-08-21T09:19:37;100092.09;;;47.70;20.43
75157;BME280;63736;50.076;8.198;2023-08-21T09:22:09;100098.38;;;47.79;20.52
75157;BME280;63736;50.076;8.198;2023-08-21T09:24:35;100094.13;;;47.86;20.09
75157;BME280;63736;50.076;8.198;2023-08-21T09:27:00;100094.19;;;47.89;19.85
75157;BME280;63736;50.076;8.198;2023-08-21T09:29:26;100093.38;;;47.41;20.29
75157;BME280;63736;50.076;8.198;2023-08-21T09:31:51;100094.66;;;47.27;20.76
75157;BME280;63736;50.076;8.198;2023-08-21T09:34:20;100088.94;;;47.40;20.52
75157;BME280;63736;50.076;8.198;2023-08-21T09:36:46;100087.47;;;47.46;20.86
75157;BME280;63736;50.076;8.198;2023-08-21T09:39:18;100088.09;;;47.55;20.60
75157;BME280;63736;50.076;8.198;2023-08-21T09:41:46;100091.03;;;47.27;20.71
75157;BME280;63736;50.076;8.198;2023-08-21T09:44:19;100086.31;;;47.03;20.89
75157;BME280;63736;50.076;8.198;2023-08-21T09:46:47;100083.38;;;46.83;21.23
75157;BME280;63736;50.076;8.198;2023-08-21T09:49:13;100092.22;;;46.81;21.26
75157;BME280;63736;50.076;8.198;2023-08-21T09:51:38;100080.91;;;46.53;21.46
75157;BME280;63736;50.076;8.198;2023-08-21T09:54:04;100081.97;;;46.08;22.10
75157;BME280;63736;50.076;8.198;2023-08-21T09:56:30;100087.50;;;45.42;22.60
75157;BME280;63736;50.076;8.198;2023-08-21T09:58:55;100089.59;;;44.87;22.94
75157;BME280;63736;50.076;8.198;2023-08-21T10:01:21;100091.59;;;44.23;23.98
75157;BME280;63736;50.076;8.198;2023-08-21T10:03:47;100083.56;;;43.53;24.84
75157;BME280;63736;50.076;8.198;2023-08-21T10:06:16;100092.50;;;42.81;25.57
75157;BME280;63736;50.076;8.198;2023-08-21T10:08:42;100089.81;;;42.06;26.24
75157;BME280;63736;50.076;8.198;2023-08-21T10:11:10;100081.38;;;41.48;27.12
75157;BME280;63736;50.076;8.198;2023-08-21T10:13:37;100089.28;;;40.92;27.87
75157;BME280;63736;50.076;8.198;2023-08-21T10:16:03;100080.00;;;40.46;28.32
75157;BME280;63736;50.076;8.198;2023-08-21T10:18:32;100084.22;;;40.07;28.58
75157;BME280;63736;50.076;8.198;2023-08-21T10:21:17;100081.16;;;39.67;29.39
75157;BME280;63736;50.076;8.198;2023-08-21T10:23:46;100069.47;;;39.04;30.46
75157;BME280;63736;50.076;8.198;2023-08-21T10:26:11;100077.75;;;38.57;31.26
75157;BME280;63736;50.076;8.198;2023-08-21T10:28:43;100078.03;;;38.17;31.50
75157;BME280;63736;50.076;8.198;2023-08-21T10:31:28;100063.47;;;37.77;32.80
75157;BME280;63736;50.076;8.198;2023-08-21T10:33:54;100061.91;;;37.46;32.79
75157;BME280;63736;50.076;8.198;2023-08-21T10:39:03;100057.13;;;36.93;34.50
75157;BME280;63736;50.076;8.198;2023-08-21T10:41:29;100053.91;;;36.76;34.53
75157;BME280;63736;50.076;8.198;2023-08-21T10:43:54;100056.00;;;36.54;34.77
75157;BME280;63736;50.076;8.198;2023-08-21T10:46:20;100057.56;;;36.36;35.14
75157;BME280;63736;50.076;8.198;2023-08-21T10:48:45;100054.53;;;36.22;35.72
75157;BME280;63736;50.076;8.198;2023-08-21T10:51:10;100053.22;;;36.10;35.98
75157;BME280;63736;50.076;8.198;2023-08-21T10:53:37;100052.16;;;36.05;36.18
75157;BME280;63736;50.076;8.198;2023-08-21T10:56:04;100052.16;;;36.00;36.45
75157;BME280;63736;50.076;8.198;2023-08-21T10:58:41;100047.13;;;36.02;36.70
75157;BME280;63736;50.076;8.198;2023-08-21T11:01:06;100047.75;;;35.94;36.72
75157;BME280;63736;50.076;8.198;2023-08-21T11:03:31;100033.88;;;35.89;37.30
75157;BME280;63736;50.076;8.198;2023-08-21T11:06:00;100031.09;;;35.89;36.89
75157;BME280;63736;50.076;8.198;2023-08-21T11:08:26;100034.97;;;35.88;37.09
75157;BME280;63736;50.076;8.198;2023-08-21T11:10:51;100041.91;;;35.91;36.98
75157;BME280;63736;50.076;8.198;2023-08-21T11:13:17;100041.63;;;35.92;36.83
75157;BME280;63736;50.076;8.198;2023-08-21T11:15:45;100038.06;;;35.86;36.46
75157;BME280;63736;50.076;8.198;2023-08-21T11:18:10;100037.22;;;35.81;36.94
75157;BME280;63736;50.076;8.198;2023-08-21T11:20:36;100042.00;;;35.60;36.62
75157;BME280;63736;50.076;8.198;2023-08-21T11:23:02;100045.13;;;35.48;36.22
75157;BME280;63736;50.076;8.198;2023-08-21T11:25:30;100046.00;;;35.28;36.37
75157;BME280;63736;50.076;8.198;2023-08-21T11:27:56;100039.91;;;35.05;36.79
75157;BME280;63736;50.076;8.198;2023-08-21T11:30:22;100040.78;;;34.90;36.43
75157;BME280;63736;50.076;8.198;2023-08-21T11:32:47;100027.47;;;34.87;36.59
75157;BME280;63736;50.076;8.198;2023-08-21T11:35:15;100029.69;;;34.85;37.30
75157;BME280;63736;50.076;8.198;2023-08-21T11:37:44;100027.44;;;34.82;37.30
75157;BME280;63736;50.076;8.198;2023-08-21T11:40:11;100036.88;;;34.81;37.28
75157;BME280;63736;50.076;8.198;2023-08-21T11:42:36;100036.31;;;34.79;37.68
75157;BME280;63736;50.076;8.198;2023-08-21T11:45:02;100030.75;;;34.68;37.37
75157;BME280;63736;50.076;8.198;2023-08-21T11:47:31;100024.91;;;34.75;37.74
75157;BME280;63736;50.076;8.198;2023-08-21T11:50:05;100030.75;;;34.73;37.45
75157;BME280;63736;50.076;8.198;2023-08-21T11:52:32;100024.66;;;34.77;37.33
75157;BME280;63736;50.076;8.198;2023-08-21T11:54:57;100020.25;;;34.91;36.78
75157;BME280;63736;50.076;8.198;2023-08-21T11:57:23;100026.88;;;35.05;37.00
75157;BME280;63736;50.076;8.198;2023-08-21T11:59:53;100022.97;;;35.17;36.27
75157;BME280;63736;50.076;8.198;2023-08-21T12:02:24;100022.13;;;35.16;35.91
75157;BME280;63736;50.076;8.198;2023-08-21T12:05:03;100021.31;;;35.16;35.64
75157;BME280;63736;50.076;8.198;2023-08-21T12:07:30;100019.38;;;35.01;35.49
75157;BME280;63736;50.076;8.198;2023-08-21T12:09:55;100016.31;;;34.92;35.70
75157;BME280;63736;50.076;8.198;2023-08-21T12:12:20;100019.38;;;34.96;36.11
75157;BME280;63736;50.076;8.198;2023-08-21T12:14:46;100016.31;;;35.02;35.54
75157;BME280;63736;50.076;8.198;2023-08-21T12:17:11;100017.44;;;35.01;36.01
75157;BME280;63736;50.076;8.198;2023-08-21T12:19:38;100026.31;;;34.98;36.39
75157;BME280;63736;50.076;8.198;2023-08-21T12:22:03;100020.47;;;35.00;35.63
75157;BME280;63736;50.076;8.198;2023-08-21T12:24:29;100011.06;;;34.96;35.11
75157;BME280;63736;50.076;8.198;2023-08-21T12:26:55;100008.28;;;34.96;35.58
75157;BME280;63736;50.076;8.198;2023-08-21T12:29:20;100011.91;;;34.96;35.35
75157;BME280;63736;50.076;8.198;2023-08-21T12:31:46;100007.19;;;34.97;35.08
75157;BME280;63736;50.076;8.198;2023-08-21T12:34:12;100008.00;;;34.97;35.25
75157;BME280;63736;50.076;8.198;2023-08-21T12:36:37;100002.72;;;35.01;35.52
75157;BME280;63736;50.076;8.198;2023-08-21T12:39:04;99999.41;;;34.99;35.27
75157;BME280;63736;50.076;8.198;2023-08-21T12:41:29;100000.50;;;35.03;35.49
75157;BME280;63736;50.076;8.198;2023-08-21T12:43:55;99998.25;;;35.15;35.25
75157;BME280;63736;50.076;8.198;2023-08-21T12:46:20;99993.53;;;35.21;35.45
75157;BME280;63736;50.076;8.198;2023-08-21T12:48:45;99992.69;;;35.10;34.89